Time;durP1;ratioP1;P1;durP2;ratioP2;P2;SDS_P1;SDS_P2;PMS_P1;PMS_P2;Temp;Humidity;BMP_temperature;BMP_pressure;BME280_temperature;BME280_humidity;BME280_pressure;Samples;Min_cycle;Max_cycle;Signal;HPM_P1;HPM_P2
2022/09/18 00:04:28;;;;;;;15.55;3.08;;;;;;;8.24;77.11;100057.31;10439387;28;19921;-79
2022/09/18 00:09:30;;;;;;;5.60;1.02;;;;;;;8.41;77.11;100051.53;10443674;28;20049;-79
2022/09/18 00:14:35;;;;;;;5.32;0.77;;;;;;;8.46;76.80;100052.06;10449941;28;20064;-79
2022/09/18 00:19:38;;;;;;;9.15;2.15;;;;;;;8.80;75.17;100044.06;10449994;28;20052;-79
2022/09/18 00:24:40;;;;;;;;;;;;;;;8.59;76.49;100046.63;10446901;28;20411;-80
2022/09/18 00:29:45;;;;;;;3.78;1.05;;;;;;;8.49;77.10;100053.66;10451859;28;19936;-79
2022/09/18 00:34:47;;;;;;;11.30;1.38;;;;;;;8.42;76.25;100057.72;10451638;28;20405;-79
2022/09/18 00:39:50;;;;;;;;;;;;;;;8.33;76.91;100053.94;10448989;28;20038;-78
2022/09/18 00:44:54;;;;;;;10.63;1.40;;;;;;;8.40;76.54;100052.50;10455435;28;20409;-78
2022/09/18 00:50:03;;;;;;;8.02;1.65;;;;;;;8.74;75.43;100057.94;10450976;28;20041;-78
2022/09/18 00:55:09;;;;;;;5.32;0.90;;;;;;;8.78;75.16;100056.72;10441556;28;20068;-79
2022/09/18 01:00:15;;;;;;;4.90;1.35;;;;;;;8.43;76.16;100065.66;10437436;28;20590;-79
2022/09/18 01:05:28;;;;;;;5.40;0.82;;;;;;;8.38;77.05;100078.53;10459965;28;20053;-79
2022/09/18 01:10:46;;;;;;;5.05;1.27;;;;;;;8.50;76.95;100083.00;10501959;28;20044;-80
2022/09/18 01:15:58;;;;;;;6.95;1.60;;;;;;;8.40;77.80;100079.28;10440770;28;20061;-79
2022/09/18 01:21:10;;;;;;;5.47;0.88;;;;;;;8.55;76.73;100082.59;10442877;28;20579;-79
2022/09/18 01:26:27;;;;;;;7.13;0.70;;;;;;;8.19;78.58;100087.09;10446013;28;20041;-79
2022/09/18 01:31:36;;;;;;;7.13;1.35;;;;;;;8.16;79.47;100088.19;10454645;28;20287;-80
2022/09/18 01:36:41;;;;;;;7.03;0.95;;;;;;;8.31;78.83;100074.59;10454154;28;20489;-79
2022/09/18 01:41:49;;;;;;;10.93;1.40;;;;;;;8.32;78.83;100076.31;10447536;28;20533;-79
2022/09/18 01:46:57;;;;;;;3.22;1.00;;;;;;;8.32;79.11;100076.31;10460345;28;20045;-79
2022/09/18 01:52:08;;;;;;;10.50;1.77;;;;;;;8.52;77.95;100066.78;10444122;28;20046;-79
2022/09/18 01:57:15;;;;;;;9.45;1.90;;;;;;;8.46;79.31;100076.16;10458066;28;20395;-79
2022/09/18 02:02:27;;;;;;;6.13;1.42;;;;;;;8.16;80.66;100077.47;10459105;28;20120;-79
2022/09/18 02:07:39;;;;;;;7.35;1.55;;;;;;;8.08;81.52;100071.88;10450775;28;20033;-79
2022/09/18 02:12:44;;;;;;;6.82;2.05;;;;;;;8.33;80.39;100080.69;10442008;28;20052;-80
2022/09/18 02:17:53;;;;;;;9.98;2.65;;;;;;;8.31;80.73;100082.63;10447512;28;20125;-79
2022/09/18 02:23:04;;;;;;;6.18;1.60;;;;;;;8.17;81.48;100081.00;10444819;28;20053;-80
2022/09/18 02:28:09;;;;;;;8.05;2.13;;;;;;;8.18;81.39;100080.06;10449665;28;20132;-79
2022/09/18 02:33:26;;;;;;;5.57;1.88;;;;;;;8.15;81.55;100072.28;10437772;28;20123;-79
2022/09/18 02:38:35;;;;;;;11.98;2.55;;;;;;;8.35;80.69;100068.91;10444348;28;20052;-79
2022/09/18 02:43:49;;;;;;;9.38;2.20;;;;;;;8.24;81.39;100063.53;10440379;28;20092;-78
2022/09/18 02:49:07;;;;;;;10.43;2.05;;;;;;;8.25;81.42;100057.19;10451972;28;20046;-79
2022/09/18 02:54:15;;;;;;;5.95;2.05;;;;;;;8.13;81.71;100050.13;10456828;28;20052;-78
2022/09/18 02:59:23;;;;;;;7.90;1.65;;;;;;;8.13;82.08;100061.66;10452097;28;20421;-79
2022/09/18 03:04:32;;;;;;;5.65;2.53;;;;;;;8.13;81.75;100059.00;10439153;28;20479;-78
2022/09/18 03:09:37;;;;;;;5.20;2.33;;;;;;;8.53;80.09;100033.69;10437046;28;20037;-78
2022/09/18 03:14:41;;;;;;;8.80;2.85;;;;;;;8.46;80.78;100045.84;10442698;28;20046;-78
2022/09/18 03:19:45;;;;;;;7.88;2.42;;;;;;;8.60;80.46;100043.78;10443921;28;20104;-78
2022/09/18 03:24:48;;;;;;;5.90;2.17;;;;;;;8.88;80.15;100049.66;10432866;28;20603;-78
2022/09/18 03:29:52;;;;;;;13.20;2.42;;;;;;;8.52;81.85;100053.41;10439276;28;20056;-77
2022/09/18 03:35:00;;;;;;;8.38;2.67;;;;;;;8.40;82.67;100055.19;10433474;28;20092;-78
2022/09/18 03:40:04;;;;;;;10.07;2.72;;;;;;;8.50;82.14;100045.50;10431077;28;20069;-78
2022/09/18 03:45:08;;;;;;;11.57;2.97;;;;;;;8.66;81.81;100058.53;10437143;28;20077;-78
2022/09/18 03:50:13;;;;;;;6.20;2.55;;;;;;;8.51;82.56;100052.56;10430929;28;20049;-78
2022/09/18 03:55:20;;;;;;;12.90;2.60;;;;;;;8.45;82.56;100047.66;10447583;28;20111;-77
2022/09/18 04:00:38;;;;;;;7.05;2.42;;;;;;;8.39;83.00;100050.78;10436340;28;20530;-77
2022/09/18 04:05:49;;;;;;;6.78;2.15;;;;;;;8.29;83.41;100049.81;10434024;28;20047;-79
2022/09/18 04:11:04;;;;;;;11.90;3.90;;;;;;;8.56;82.22;100053.06;10416650;28;20095;-78
2022/09/18 04:16:09;;;;;;;6.65;2.00;;;;;;;8.40;82.38;100061.38;10424597;28;20048;-78
2022/09/18 04:21:13;;;;;;;13.48;2.50;;;;;;;8.60;82.17;100045.63;10451639;28;20124;-79
2022/09/18 04:26:16;;;;;;;14.32;2.97;;;;;;;8.67;81.75;100054.06;10439602;28;20417;-78
2022/09/18 04:31:26;;;;;;;5.90;2.25;;;;;;;8.67;81.56;100057.56;10438635;28;20048;-78
2022/09/18 04:36:32;;;;;;;8.77;2.88;;;;;;;8.69;81.04;100044.06;10437189;28;20053;-79
2022/09/18 04:41:35;;;;;;;9.10;1.98;;;;;;;8.40;82.03;100042.66;10411334;28;20060;-79
2022/09/18 04:46:39;;;;;;;12.80;2.40;;;;;;;8.78;81.21;100035.31;10422597;28;20570;-78
2022/09/18 04:51:44;;;;;;;8.77;2.03;;;;;;;8.68;81.68;100037.84;10427992;28;20485;-78
2022/09/18 04:56:49;;;;;;;7.10;1.40;;;;;;;8.59;81.54;100028.72;10440221;28;20080;-79
2022/09/18 05:01:52;;;;;;;7.60;1.42;;;;;;;8.50;81.24;100040.16;10436427;28;20053;-78
2022/09/18 05:06:56;;;;;;;9.13;2.08;;;;;;;8.26;82.91;100044.69;10439518;28;20045;-79
2022/09/18 05:11:59;;;;;;;11.27;1.98;;;;;;;8.75;80.60;100032.84;10431049;28;20057;-78
2022/09/18 05:17:02;;;;;;;9.68;2.20;;;;;;;8.53;81.87;100034.56;10431407;28;20041;-78
2022/09/18 05:22:13;;;;;;;10.40;1.58;;;;;;;8.86;81.04;100034.69;10435344;28;20140;-79
2022/09/18 05:27:23;;;;;;;8.13;1.85;;;;;;;9.09;80.11;100039.06;10426949;28;20063;-78
2022/09/18 05:32:30;;;;;;;11.32;1.88;;;;;;;9.06;80.30;100039.31;10445166;28;20045;-79
2022/09/18 05:37:34;;;;;;;;;;;;;;;8.99;80.82;100038.09;10435262;28;20052;-78
2022/09/18 05:42:37;;;;;;;7.75;2.08;;;;;;;9.03;80.64;100039.56;10439461;28;19925;-79
2022/09/18 05:47:40;;;;;;;;;;;;;;;9.15;79.95;100018.97;10448661;28;20081;-79
2022/09/18 05:52:45;;;;;;;11.95;2.00;;;;;;;9.26;79.56;100025.13;10435683;28;20003;-78
2022/09/18 05:57:51;;;;;;;5.35;1.50;;;;;;;9.05;80.99;100034.91;10418088;28;20042;-78
2022/09/18 06:02:56;;;;;;;13.07;2.90;;;;;;;8.90;83.23;100052.22;10449496;22;20046;-77
2022/09/18 06:08:03;;;;;;;4.55;1.83;;;;;;;8.41;86.96;100035.47;10421712;28;20112;-78
2022/09/18 06:13:09;;;;;;;8.07;2.40;;;;;;;8.53;87.33;100039.91;10415646;28;20050;-78
2022/09/18 06:18:17;;;;;;;13.23;2.90;;;;;;;9.08;85.54;100037.38;10403594;28;20045;-76
2022/09/18 06:23:23;;;;;;;6.35;1.80;;;;;;;8.79;86.80;100028.97;10385311;28;20061;-76
2022/09/18 06:28:34;;;;;;;7.00;1.77;;;;;;;9.03;86.10;100043.09;10400649;28;20048;-76
2022/09/18 06:33:39;;;;;;;3.55;1.27;;;;;;;8.76;86.92;100047.97;10398956;28;20045;-76
2022/09/18 06:38:43;;;;;;;4.10;1.60;;;;;;;8.90;85.94;100039.69;10398629;28;20045;-77
2022/09/18 06:43:49;;;;;;;6.50;1.52;;;;;;;9.13;85.48;100037.81;10388138;28;20045;-77
2022/09/18 06:49:20;;;;;;;8.65;2.13;;;;;;;9.10;85.01;100035.41;10370509;28;20091;-77
2022/09/18 06:54:25;;;;;;;7.38;2.03;;;;;;;9.04;85.47;100028.72;10404570;28;20430;-77
2022/09/18 06:59:29;;;;;;;7.88;1.73;;;;;;;8.96;84.47;100022.25;10382744;28;20070;-77
2022/09/18 07:04:34;;;;;;;7.68;2.10;;;;;;;9.37;83.70;100026.09;10400623;28;20042;-77
2022/09/18 07:09:38;;;;;;;5.45;1.92;;;;;;;9.48;82.47;100034.97;10400865;28;20052;-78
2022/09/18 07:14:50;;;;;;;13.70;2.80;;;;;;;9.28;83.51;100023.19;10382924;28;20687;-77
2022/09/18 07:19:54;;;;;;;10.40;2.08;;;;;;;9.54;82.38;100030.09;10370549;28;20057;-77
2022/09/18 07:25:08;;;;;;;10.50;2.03;;;;;;;9.45;82.57;100035.22;10390572;28;20076;-76
2022/09/18 07:30:11;;;;;;;7.22;1.67;;;;;;;9.80;81.26;100026.09;10393706;28;20465;-78
2022/09/18 07:35:16;;;;;;;5.15;1.10;;;;;;;10.00;79.72;100031.66;10387369;28;20057;-77
2022/09/18 07:40:20;;;;;;;10.25;2.20;;;;;;;10.16;79.46;100026.69;10378465;28;20050;-78
2022/09/18 07:45:43;;;;;;;8.37;1.43;;;;;;;9.88;79.39;100023.66;10382623;28;20041;-76
2022/09/18 07:50:46;;;;;;;5.63;1.45;;;;;;;10.37;78.52;100024.84;10404937;28;20300;-76
2022/09/18 07:55:54;;;;;;;5.45;1.08;;;;;;;10.46;77.08;100035.78;10420069;28;20072;-77
2022/09/18 08:01:00;;;;;;;5.95;1.35;;;;;;;10.18;78.76;100032.78;10401031;28;20075;-77
2022/09/18 08:06:05;;;;;;;11.23;2.40;;;;;;;10.20;77.92;100029.97;10393305;28;20479;-77
2022/09/18 08:11:10;;;;;;;5.78;1.30;;;;;;;10.28;79.44;100033.69;10396473;28;20049;-77
2022/09/18 08:16:20;;;;;;;3.22;0.85;;;;;;;9.91;80.90;100030.59;10377279;28;20445;-77
2022/09/18 08:21:44;;;;;;;3.08;1.05;;;;;;;9.80;82.29;100018.06;10391758;28;20076;-78
2022/09/18 08:26:51;;;;;;;7.20;1.40;;;;;;;9.29;85.73;100040.13;10394391;28;20053;-77
2022/09/18 08:31:54;;;;;;;5.50;1.30;;;;;;;9.06;87.23;100040.16;10387547;28;20054;-78
2022/09/18 08:36:57;;;;;;;8.25;1.58;;;;;;;9.08;88.40;100034.69;10373310;28;20621;-77
2022/09/18 08:42:28;;;;;;;4.93;1.40;;;;;;;9.09;88.63;100044.44;10402189;28;20556;-75
2022/09/18 08:47:35;;;;;;;;;;;;;;;9.43;87.86;100039.00;10402026;28;20045;-79
2022/09/18 08:52:45;;;;;;;8.63;1.95;;;;;;;9.12;87.43;100037.97;10411877;28;20101;-78
2022/09/18 08:58:07;;;;;;;5.35;1.10;;;;;;;9.21;86.70;100027.34;10400856;28;20042;-75
2022/09/18 09:03:28;;;;;;;1.77;0.68;;;;;;;9.18;85.79;100035.63;10429418;28;20099;-79
2022/09/18 09:09:16;;;;;;;1.95;0.80;;;;;;;9.36;84.68;100040.50;10419400;28;20049;-78
2022/09/18 09:14:49;;;;;;;4.75;0.88;;;;;;;8.94;87.04;100059.91;10395863;28;20418;-77
2022/09/18 09:20:06;;;;;;;4.20;1.13;;;;;;;9.19;87.10;100034.69;10406178;28;20048;-80
2022/09/18 09:25:20;;;;;;;6.78;1.52;;;;;;;8.75;88.94;100047.13;10413937;28;20049;-79
2022/09/18 09:30:48;;;;;;;4.57;1.40;;;;;;;9.41;87.58;100035.63;10385333;28;20058;-79
2022/09/18 09:36:14;;;;;;;2.75;2.10;;;;;;;9.09;87.52;100048.94;10415803;28;20045;-79
2022/09/18 09:41:27;;;;;;;4.45;1.77;;;;;;;9.35;87.73;100036.97;10408497;28;20042;-81
2022/09/18 09:46:47;;;;;;;4.60;2.50;;;;;;;9.17;89.29;100041.13;10402121;28;20125;-79
2022/09/18 09:51:58;;;;;;;10.15;3.00;;;;;;;9.29;88.41;100024.03;10404884;28;20042;-77
2022/09/18 09:57:14;;;;;;;6.18;2.22;;;;;;;9.28;88.39;100033.06;10402269;28;20108;-76
2022/09/18 10:02:36;;;;;;;3.22;1.40;;;;;;;9.21;88.18;100027.34;10398549;28;20053;-78
2022/09/18 10:07:47;;;;;;;3.93;1.53;;;;;;;9.37;87.25;100035.00;10418609;28;20068;-80
2022/09/18 10:12:52;;;;;;;5.50;1.58;;;;;;;9.44;87.49;100036.22;10414965;28;20049;-79
2022/09/18 10:18:01;;;;;;;4.57;1.60;;;;;;;9.19;87.76;100032.00;10400691;28;20047;-79
2022/09/18 10:23:10;;;;;;;4.18;1.55;;;;;;;9.54;87.88;100038.97;10406826;28;20052;-77
2022/09/18 10:28:14;;;;;;;4.43;1.58;;;;;;;9.85;86.10;100028.41;10402249;28;20044;-79
2022/09/18 10:33:31;;;;;;;3.03;1.40;;;;;;;9.59;86.31;100027.88;10408212;28;20041;-78
2022/09/18 10:38:38;;;;;;;4.35;1.33;;;;;;;9.26;86.76;100008.22;10409212;28;20041;-79
2022/09/18 10:44:05;;;;;;;4.35;1.27;;;;;;;9.84;86.11;100007.91;10398187;28;20136;-78
2022/09/18 10:49:19;;;;;;;3.83;1.27;;;;;;;9.60;86.22;100008.13;10415049;28;20136;-79
2022/09/18 10:54:23;;;;;;;5.35;1.42;;;;;;;9.87;86.00;100019.28;10414485;28;20051;-77
2022/09/18 10:59:36;;;;;;;8.98;1.50;;;;;;;9.83;86.43;100020.47;10416529;28;20060;-80
2022/09/18 11:04:41;;;;;;;4.20;1.25;;;;;;;9.31;86.56;100006.00;10399696;28;20080;-80
2022/09/18 11:09:45;;;;;;;4.72;0.90;;;;;;;9.10;88.65;100010.44;10416549;28;20042;-78
2022/09/18 11:14:55;;;;;;;4.03;0.95;;;;;;;9.13;88.73;100004.81;10402793;28;20045;-80
2022/09/18 11:20:03;;;;;;;6.57;1.63;;;;;;;9.16;89.19;100002.78;10402546;28;20069;-79
2022/09/18 11:25:22;;;;;;;4.18;1.02;;;;;;;9.17;89.56;100001.78;10410263;28;20123;-79
2022/09/18 11:30:31;;;;;;;3.05;1.13;;;;;;;9.05;90.63;100006.31;10419669;28;20061;-78
2022/09/18 11:35:44;;;;;;;4.20;0.93;;;;;;;8.90;90.82;100012.03;10406422;28;20118;-78
2022/09/18 11:40:52;;;;;;;5.05;0.85;;;;;;;8.80;90.08;100002.06;10413070;28;20045;-79
2022/09/18 11:46:13;;;;;;;0.70;0.40;;;;;;;8.21;91.32;100012.09;10388932;28;20050;-80
2022/09/18 11:51:25;;;;;;;1.52;0.90;;;;;;;8.46;90.83;99992.31;10399764;28;20041;-81
2022/09/18 11:56:36;;;;;;;1.52;0.55;;;;;;;8.54;89.67;99996.09;10411091;28;20053;-77
2022/09/18 12:01:42;;;;;;;2.35;0.70;;;;;;;8.44;89.36;99978.16;10407038;28;20072;-75
2022/09/18 12:06:54;;;;;;;1.10;0.50;;;;;;;8.54;88.23;99989.91;10408486;28;20036;-76
2022/09/18 12:12:07;;;;;;;2.17;0.68;;;;;;;8.70;87.60;99965.44;10423275;28;20045;-78
2022/09/18 12:17:19;;;;;;;0.65;0.40;;;;;;;8.75;85.89;99925.72;10376267;28;20130;-78
2022/09/18 12:22:26;;;;;;;1.23;0.43;;;;;;;8.83;84.24;99953.63;10342398;28;20126;-77
2022/09/18 12:27:36;;;;;;;0.88;0.57;;;;;;;9.05;82.90;99936.66;10390032;28;20133;-77
2022/09/18 12:33:06;;;;;;;2.33;0.38;;;;;;;8.84;81.86;99930.38;10404780;28;20140;-77
2022/09/18 12:38:24;;;;;;;1.33;0.80;;;;;;;9.00;81.72;99938.84;10463652;22;20036;-77
2022/09/18 12:44:03;;;;;;;0.75;0.50;;;;;;;9.40;81.62;99930.19;10461766;28;20119;-80
2022/09/18 12:49:20;;;;;;;1.13;0.88;;;;;;;9.41;79.28;99933.75;10409687;28;20077;-78
2022/09/18 12:54:50;;;;;;;2.42;0.70;;;;;;;9.51;77.19;99940.88;10422993;28;20084;-78
2022/09/18 12:59:58;;;;;;;2.72;1.05;;;;;;;10.01;76.55;99926.00;10411311;28;20045;-78
2022/09/18 13:05:05;;;;;;;3.85;1.35;;;;;;;9.42;76.57;99940.81;10420552;28;20095;-78
2022/09/18 13:10:15;;;;;;;1.02;0.55;;;;;;;9.67;78.22;99928.88;10411534;28;20104;-77
2022/09/18 13:15:23;;;;;;;1.95;0.65;;;;;;;9.82;77.73;99919.53;10400094;28;20069;-78
2022/09/18 13:20:31;;;;;;;1.55;0.60;;;;;;;9.90;76.91;99911.72;10403787;28;20041;-79
2022/09/18 13:25:39;;;;;;;1.95;0.93;;;;;;;9.53;77.74;99923.81;10407602;28;20053;-80
2022/09/18 13:30:42;;;;;;;1.88;0.45;;;;;;;9.87;77.68;99917.34;10389696;28;20042;-78
2022/09/18 13:35:53;;;;;;;4.38;1.00;;;;;;;9.54;78.41;99914.78;10395021;28;20049;-79
2022/09/18 13:41:01;;;;;;;1.90;0.52;;;;;;;9.71;77.99;99919.59;10393317;28;20068;-80
2022/09/18 13:46:04;;;;;;;1.60;0.60;;;;;;;10.09;78.08;99919.03;10408062;28;20068;-81
2022/09/18 13:51:17;;;;;;;4.35;1.42;;;;;;;10.32;78.04;99930.44;10423785;28;20041;-79
2022/09/18 13:56:21;;;;;;;3.38;0.70;;;;;;;9.76;79.78;99914.66;10423687;28;20062;-82
2022/09/18 14:01:57;;;;;;;3.30;0.60;;;;;;;9.77;79.79;99923.59;10423233;28;20454;-81
2022/09/18 14:07:00;;;;;;;0.70;0.70;;;;;;;9.70;80.25;99917.88;10415023;28;20586;-79
2022/09/18 14:12:13;;;;;;;3.08;0.90;;;;;;;9.59;79.45;99912.56;10422249;28;20042;-79
2022/09/18 14:17:16;;;;;;;;;;;;;;;9.86;79.34;99912.09;10431980;28;20046;-77
2022/09/18 14:22:25;;;;;;;2.03;0.77;;;;;;;10.30;77.94;99918.13;10426767;28;19925;-80
2022/09/18 14:27:55;;;;;;;3.85;0.90;;;;;;;10.46;76.95;99921.19;10419094;28;20061;-80
2022/09/18 14:33:06;;;;;;;3.92;0.80;;;;;;;10.72;76.31;99918.00;10418253;28;20049;-81
2022/09/18 14:38:24;;;;;;;4.90;1.30;;;;;;;10.17;77.87;99912.97;10410426;28;20050;-81
2022/09/18 14:43:28;;;;;;;5.38;1.40;;;;;;;10.41;77.47;99917.19;10387000;28;20054;-81
2022/09/18 14:48:36;;;;;;;3.05;1.05;;;;;;;9.89;77.98;99917.19;10404577;28;20065;-79
2022/09/18 14:53:43;;;;;;;5.40;0.93;;;;;;;10.41;77.29;99920.72;10415011;28;20042;-81
2022/09/18 14:58:49;;;;;;;9.35;1.50;;;;;;;10.28;77.32;99922.78;10407699;28;20061;-81
2022/09/18 15:03:54;;;;;;;3.55;1.30;;;;;;;10.29;77.04;99911.91;10413678;28;20513;-77
2022/09/18 15:08:57;;;;;;;4.25;1.15;;;;;;;10.37;76.64;99903.19;10421104;28;20049;-79
2022/09/18 15:14:02;;;;;;;4.50;1.25;;;;;;;10.61;75.90;99906.41;10416164;28;20049;-82
2022/09/18 15:19:17;;;;;;;7.55;1.60;;;;;;;10.54;77.05;99897.19;10412596;28;20053;-82
2022/09/18 15:24:20;;;;;;;8.05;1.08;;;;;;;10.78;76.44;99899.53;10386620;28;20064;-81
2022/09/18 15:29:27;;;;;;;5.15;1.55;;;;;;;10.55;76.64;99892.66;10389786;28;20058;-79
2022/09/18 15:34:38;;;;;;;6.10;1.20;;;;;;;10.09;77.44;99885.94;10419171;28;20053;-80
2022/09/18 15:39:41;;;;;;;4.60;1.60;;;;;;;10.24;77.33;99892.69;10402977;28;20415;-81
2022/09/18 15:45:22;;;;;;;2.92;0.93;;;;;;;10.00;78.17;99881.38;10405618;28;20435;-80
2022/09/18 15:50:37;;;;;;;5.38;1.35;;;;;;;10.15;77.57;99888.97;10384125;28;20065;-81
2022/09/18 15:55:49;;;;;;;0.63;0.60;;;;;;;10.03;77.66;99887.34;10411756;28;20140;-82
2022/09/18 16:00:59;;;;;;;5.72;1.30;;;;;;;10.16;77.53;99905.91;10399904;28;20046;-82
2022/09/18 16:06:04;;;;;;;4.93;1.20;;;;;;;9.95;81.24;99900.56;10397732;28;20593;-82
2022/09/18 16:11:37;;;;;;;7.35;1.27;;;;;;;9.40;82.78;99913.25;10411981;28;20056;-79
2022/09/18 16:16:41;;;;;;;5.22;1.33;;;;;;;9.64;83.11;99897.78;10387788;28;20411;-80
2022/09/18 16:21:44;;;;;;;6.32;1.17;;;;;;;9.71;82.08;99895.47;10393696;28;20041;-81
2022/09/18 16:26:47;;;;;;;2.58;0.88;;;;;;;9.55;82.03;99885.19;10384834;28;20045;-79
2022/09/18 16:31:51;;;;;;;5.72;1.52;;;;;;;9.92;80.18;99882.03;10387879;28;20493;-81
2022/09/18 16:36:56;;;;;;;5.95;1.20;;;;;;;9.86;80.36;99877.22;10386539;28;20467;-81
2022/09/18 16:41:59;;;;;;;6.57;1.10;;;;;;;9.73;80.45;99875.53;10400932;28;20061;-80
2022/09/18 16:47:08;;;;;;;7.00;1.15;;;;;;;9.57;80.13;99872.50;10402518;28;20410;-78
2022/09/18 16:52:12;;;;;;;10.32;1.52;;;;;;;9.89;78.87;99872.44;10394579;28;20042;-80
2022/09/18 16:57:19;;;;;;;3.35;0.80;;;;;;;9.69;79.18;99881.31;10387203;28;20050;-80
2022/09/18 17:02:23;;;;;;;5.25;1.50;;;;;;;9.86;78.57;99869.16;10405702;28;20073;-81
2022/09/18 17:07:28;;;;;;;6.72;1.25;;;;;;;9.80;78.35;99869.66;10413250;28;20046;-79
2022/09/18 17:12:31;;;;;;;9.10;1.38;;;;;;;9.79;78.13;99873.31;10426713;28;20068;-79
2022/09/18 17:17:35;;;;;;;;;;;;;;;9.62;77.19;99878.28;10422239;28;20062;-80
2022/09/18 17:22:37;;;;;;;6.50;1.30;;;;;;;9.65;77.05;99879.88;10399539;28;19921;-79
2022/09/18 17:27:40;;;;;;;;;;;;;;;9.67;76.96;99880.59;10398153;28;20100;-77
2022/09/18 17:32:48;;;;;;;9.07;1.67;;;;;;;9.68;77.42;99890.31;10408258;28;19921;-79
2022/09/18 17:37:50;;;;;;;4.30;1.52;;;;;;;9.84;77.20;99898.75;10411837;28;20049;-80
2022/09/18 17:42:53;;;;;;;7.05;1.30;;;;;;;9.81;77.19;99895.50;10411149;28;20070;-78
2022/09/18 17:47:57;;;;;;;6.38;2.17;;;;;;;9.50;78.64;99912.38;10425440;28;20053;-78
2022/09/18 17:53:00;;;;;;;7.13;1.63;;;;;;;9.46;80.57;99912.75;10392614;28;20041;-80
2022/09/18 17:58:04;;;;;;;5.10;1.42;;;;;;;9.09;82.67;99912.28;10405077;28;20499;-79
2022/09/18 18:03:08;;;;;;;6.70;1.90;;;;;;;9.05;82.61;99925.94;10408198;28;20623;-80
2022/09/18 18:08:11;;;;;;;5.80;1.55;;;;;;;8.89;81.69;99917.44;10391564;28;20435;-80
2022/09/18 18:13:16;;;;;;;6.40;1.65;;;;;;;8.77;82.71;99929.13;10414773;28;20050;-78
2022/09/18 18:18:21;;;;;;;6.63;1.85;;;;;;;8.88;82.03;99937.16;10420569;28;20081;-79
2022/09/18 18:23:25;;;;;;;5.38;1.55;;;;;;;9.01;80.38;99934.34;10389791;28;20034;-78
2022/09/18 18:28:30;;;;;;;7.07;1.70;;;;;;;8.96;79.85;99921.31;10401830;28;20049;-80
2022/09/18 18:33:36;;;;;;;9.75;1.30;;;;;;;8.61;81.37;99940.22;10410205;28;20054;-78
2022/09/18 18:38:39;;;;;;;6.38;1.17;;;;;;;8.73;80.86;99933.91;10409694;28;20049;-79
2022/09/18 18:43:43;;;;;;;6.82;1.35;;;;;;;8.60;80.89;99942.06;10408794;28;20064;-77
2022/09/18 18:48:48;;;;;;;8.65;2.42;;;;;;;8.92;80.21;99954.69;10387335;28;20100;-78
2022/09/18 18:53:54;;;;;;;3.80;1.20;;;;;;;9.03;80.09;99952.00;10400165;28;20090;-79
2022/09/18 18:58:59;;;;;;;6.47;1.42;;;;;;;8.52;81.89;99939.13;10406888;28;20053;-79
2022/09/18 19:04:06;;;;;;;5.30;0.88;;;;;;;7.73;89.83;99954.19;10432129;23;20061;-79
2022/09/18 19:09:12;;;;;;;10.40;2.08;;;;;;;7.91;89.14;99950.13;10413913;28;20068;-78
2022/09/18 19:14:24;;;;;;;10.20;2.53;;;;;;;7.97;89.11;99975.53;10413540;28;20041;-77
2022/09/18 19:19:28;;;;;;;6.30;1.95;;;;;;;7.85;89.62;99963.13;10418096;28;20037;-79
2022/09/18 19:24:31;;;;;;;8.02;1.90;;;;;;;7.74;88.55;99958.59;10420115;28;20041;-79
2022/09/18 19:29:34;;;;;;;;;;;;;;;7.73;87.77;99951.50;10410239;28;20077;-78
2022/09/18 19:34:39;;;;;;;7.85;1.30;;;;;;;7.89;86.84;99951.19;10397123;28;19949;-79
2022/09/18 19:39:46;;;;;;;7.05;1.30;;;;;;;8.00;85.80;99953.91;10418313;28;20041;-80
2022/09/18 19:44:52;;;;;;;8.70;0.95;;;;;;;8.01;84.25;99962.75;10412579;28;20111;-80
2022/09/18 19:49:57;;;;;;;1.50;0.70;;;;;;;7.93;83.53;99958.88;10421315;28;20046;-80
2022/09/18 19:55:00;;;;;;;4.35;1.00;;;;;;;8.20;82.18;99955.03;10421256;28;20076;-79
2022/09/18 20:00:04;;;;;;;;;;;;;;;7.88;82.41;99952.19;10406785;28;20491;-80
2022/09/18 20:05:15;;;;;;;3.08;0.90;;;;;;;8.46;80.18;99949.50;10403426;28;19921;-79
2022/09/18 20:10:18;;;;;;;6.97;0.85;;;;;;;7.98;81.51;99979.94;10412795;28;20313;-79
2022/09/18 20:15:20;;;;;;;3.80;1.70;;;;;;;7.95;80.65;99967.66;10427259;28;20041;-78
2022/09/18 20:20:25;;;;;;;;;;;;;;;7.88;80.58;99963.72;10416087;28;20060;-80
2022/09/18 20:25:28;;;;;;;2.70;0.47;;;;;;;8.23;79.15;99953.94;10408112;28;19925;-80
2022/09/18 20:30:30;;;;;;;;;;;;;;;7.63;80.54;99946.03;10395216;28;20076;-79
2022/09/18 20:35:35;;;;;;;3.13;0.70;;;;;;;8.31;79.31;99962.22;10410416;28;19921;-79
2022/09/18 20:40:38;;;;;;;11.18;1.17;;;;;;;8.40;81.23;99953.47;10411656;28;20049;-78
2022/09/18 20:45:41;;;;;;;3.80;1.15;;;;;;;7.60;87.05;99951.59;10423282;28;20053;-79
2022/09/18 20:50:45;;;;;;;;;;;;;;;7.79;88.36;99953.75;10425939;28;20038;-78
2022/09/18 20:55:48;;;;;;;8.40;0.80;;;;;;;7.19;91.08;99962.72;10423791;28;19964;-79
2022/09/18 21:00:52;;;;;;;8.75;1.30;;;;;;;7.24;89.53;99958.72;10417697;28;20111;-78
2022/09/18 21:05:56;;;;;;;4.38;1.20;;;;;;;7.89;86.88;99952.03;10427652;28;20054;-79
2022/09/18 21:11:22;;;;;;;5.03;0.90;;;;;;;7.73;87.63;99959.53;10397693;28;20129;-80
2022/09/18 21:16:26;;;;;;;6.47;1.30;;;;;;;8.03;85.33;99972.38;10404763;28;20042;-79
2022/09/18 21:21:33;;;;;;;6.28;0.65;;;;;;;7.99;84.58;99968.25;10408721;28;20046;-80
2022/09/18 21:26:37;;;;;;;6.72;1.45;;;;;;;8.16;84.65;99962.44;10394872;28;20460;-79
2022/09/18 21:31:42;;;;;;;5.78;0.98;;;;;;;8.41;84.03;99973.91;10387268;28;20121;-78
2022/09/18 21:36:46;;;;;;;7.50;1.20;;;;;;;8.69;82.77;99974.44;10389561;28;20565;-78
2022/09/18 21:41:52;;;;;;;4.88;1.05;;;;;;;8.37;83.84;99983.16;10396228;28;20128;-79
2022/09/18 21:46:57;;;;;;;3.70;1.48;;;;;;;8.55;83.32;99992.44;10403683;28;20042;-75
2022/09/18 21:52:04;;;;;;;4.15;0.65;;;;;;;8.17;83.54;100004.28;10395992;28;20398;-79
2022/09/18 21:57:07;;;;;;;6.35;1.00;;;;;;;8.70;82.55;100016.31;10387517;28;20470;-78
2022/09/18 22:02:12;;;;;;;5.97;1.02;;;;;;;8.51;82.71;100024.94;10385706;28;20042;-79
2022/09/18 22:07:17;;;;;;;6.10;1.08;;;;;;;8.63;83.08;100021.28;10391030;28;20052;-79
2022/09/18 22:12:20;;;;;;;4.88;1.00;;;;;;;8.41;82.50;100038.13;10397332;28;20049;-78
2022/09/18 22:17:24;;;;;;;;;;;;;;;8.35;83.03;100052.00;10398737;28;20084;-78
2022/09/18 22:22:28;;;;;;;5.10;0.80;;;;;;;8.56;82.28;100041.50;10412289;28;19968;-79
2022/09/18 22:27:31;;;;;;;3.92;0.98;;;;;;;8.25;83.08;100048.31;10410832;28;20126;-79
2022/09/18 22:32:33;;;;;;;;;;;;;;;8.39;82.15;100059.69;10401181;28;20541;-78
2022/09/18 22:37:37;;;;;;;2.25;0.70;;;;;;;8.52;82.02;100064.09;10409652;28;19960;-79
2022/09/18 22:42:40;;;;;;;1.90;0.50;;;;;;;8.42;81.99;100074.66;10402175;28;20096;-79
2022/09/18 22:47:43;;;;;;;;;;;;;;;8.09;83.63;100075.38;10395796;28;20528;-79
2022/09/18 22:52:47;;;;;;;2.03;0.47;;;;;;;8.48;82.80;100084.91;10384550;28;20368;-79
2022/09/18 22:57:50;;;;;;;4.55;0.77;;;;;;;8.37;82.57;100100.91;10383150;28;20077;-80
2022/09/18 23:02:52;;;;;;;;;;;;;;;8.10;83.98;100104.72;10394955;28;20081;-78
2022/09/18 23:07:56;;;;;;;3.95;0.65;;;;;;;8.69;82.35;100111.84;10403215;28;20015;-80
2022/09/18 23:12:59;;;;;;;3.03;0.70;;;;;;;8.56;82.69;100119.97;10379349;28;20125;-78
2022/09/18 23:18:02;;;;;;;4.50;1.85;;;;;;;8.35;83.35;100118.91;10410863;28;20692;-78
2022/09/18 23:23:06;;;;;;;4.65;0.70;;;;;;;8.51;81.92;100130.19;10379143;28;20066;-78
2022/09/18 23:28:09;;;;;;;3.95;0.80;;;;;;;8.38;82.95;100127.56;10385334;28;20097;-78
2022/09/18 23:33:12;;;;;;;2.92;0.85;;;;;;;8.46;82.64;100137.72;10391731;28;20501;-80
2022/09/18 23:38:16;;;;;;;5.32;0.50;;;;;;;8.40;82.34;100135.47;10401139;28;20080;-79
2022/09/18 23:43:19;;;;;;;5.57;0.70;;;;;;;8.01;84.15;100147.34;10412128;28;20054;-79
2022/09/18 23:48:22;;;;;;;;;;;;;;;8.39;82.65;100152.50;10413425;28;20045;-78
2022/09/18 23:53:26;;;;;;;4.47;1.05;;;;;;;8.31;84.25;100153.09;10416289;28;19965;-80
2022/09/18 23:58:29;;;;;;;10.00;1.55;;;;;;;8.22;85.08;100168.97;10401877;28;20069;-80
